Time;durP1;ratioP1;P1;durP2;ratioP2;P2;SDS_P1;SDS_P2;PMS_P1;PMS_P2;Temp;Humidity;BMP_temperature;BMP_pressure;BME280_temperature;BME280_humidity;BME280_pressure;Samples;Min_cycle;Max_cycle;Signal;HPM_P1;HPM_P2
2024/04/26 00:01:32;;;;;;;10.02;7.32;;;7.10;99.90;;;;;;5356501;26;20026;-77
2024/04/26 00:03:58;;;;;;;8.77;6.40;;;7.10;99.90;;;;;;5350371;26;20018;-78
2024/04/26 00:06:25;;;;;;;8.10;6.68;;;7.10;99.90;;;;;;5306649;26;20002;-77
2024/04/26 00:08:51;;;;;;;8.93;7.32;;;7.10;99.90;;;;;;5359059;26;20003;-76
2024/04/26 00:11:17;;;;;;;9.25;8.23;;;7.10;99.90;;;;;;5362770;26;21594;-79
2024/04/26 00:13:44;;;;;;;11.73;8.73;;;7.10;99.90;;;;;;5357268;26;20009;-78
2024/04/26 00:16:10;;;;;;;13.27;9.20;;;7.10;99.90;;;;;;5357201;26;20021;-78
2024/04/26 00:18:37;;;;;;;11.77;9.75;;;7.10;99.90;;;;;;5349830;26;20003;-79
2024/04/26 00:21:03;;;;;;;14.40;9.85;;;7.10;99.90;;;;;;5352616;26;20011;-80
2024/04/26 00:23:29;;;;;;;12.25;10.32;;;7.10;99.90;;;;;;5356955;26;20713;-78
2024/04/26 00:25:56;;;;;;;13.48;10.10;;;7.10;99.90;;;;;;5354265;26;20438;-78
2024/04/26 00:28:22;;;;;;;13.15;9.82;;;7.10;99.90;;;;;;5340214;26;20052;-78
2024/04/26 00:30:48;;;;;;;12.77;10.30;;;7.10;99.90;;;;;;5394068;26;20007;-78
2024/04/26 00:33:15;;;;;;;13.10;11.02;;;7.10;99.90;;;;;;5353476;26;20017;-79
2024/04/26 00:35:41;;;;;;;11.55;9.68;;;7.10;99.90;;;;;;5325792;26;20003;-78
2024/04/26 00:38:07;;;;;;;12.68;9.85;;;7.10;99.90;;;;;;5354908;26;20022;-78
2024/04/26 00:40:34;;;;;;;12.18;10.73;;;7.10;99.90;;;;;;5355646;26;20011;-78
2024/04/26 00:43:00;;;;;;;11.63;9.43;;;7.10;99.90;;;;;;5386917;26;20014;-78
2024/04/26 00:45:27;;;;;;;12.40;10.10;;;7.10;99.90;;;;;;5390258;26;20011;-78
2024/04/26 00:47:53;;;;;;;15.65;12.32;;;7.10;99.90;;;;;;5396735;26;20007;-80
2024/04/26 00:50:20;;;;;;;13.05;11.27;;;7.10;99.90;;;;;;5388254;26;20025;-79
2024/04/26 00:52:47;;;;;;;14.63;11.75;;;7.10;99.90;;;;;;5357998;26;20025;-78
2024/04/26 00:55:14;;;;;;;15.88;12.18;;;7.10;99.90;;;;;;5330267;26;20014;-78
2024/04/26 00:57:41;;;;;;;18.38;13.27;;;7.10;99.90;;;;;;5302674;26;20469;-77
2024/04/26 01:00:07;;;;;;;16.13;13.02;;;7.10;99.90;;;;;;5328881;26;20022;-77
2024/04/26 01:02:36;;;;;;;16.50;13.32;;;7.00;99.90;;;;;;5351277;26;20011;-78
2024/04/26 01:05:02;;;;;;;16.48;12.60;;;7.00;99.90;;;;;;5351830;26;19995;-77
2024/04/26 01:07:28;;;;;;;13.77;11.85;;;7.00;99.90;;;;;;5398073;26;20017;-77
2024/04/26 01:09:55;;;;;;;20.05;14.85;;;7.00;99.90;;;;;;5352632;26;20006;-78
2024/04/26 01:12:22;;;;;;;16.98;12.88;;;7.00;99.90;;;;;;5357056;26;20488;-76
2024/04/26 01:14:49;;;;;;;14.98;12.63;;;7.00;99.90;;;;;;5387661;26;20353;-77
2024/04/26 01:17:15;;;;;;;15.25;11.30;;;7.00;99.90;;;;;;5358852;26;20539;-78
2024/04/26 01:19:41;;;;;;;11.32;10.10;;;7.00;99.90;;;;;;5389455;26;20002;-76
2024/04/26 01:22:29;;;;;;;16.52;13.45;;;7.00;99.90;;;;;;5374773;26;20021;-79
2024/04/26 01:24:56;;;;;;;17.60;12.00;;;7.00;99.90;;;;;;5334487;26;21242;-76
2024/04/26 01:27:23;;;;;;;15.43;12.32;;;7.00;99.90;;;;;;5328064;26;20003;-77
2024/04/26 01:29:50;;;;;;;16.17;12.52;;;6.90;99.90;;;;;;5360457;26;20600;-78
2024/04/26 01:32:16;;;;;;;14.75;11.95;;;6.90;99.90;;;;;;5388622;26;20010;-77
2024/04/26 01:34:43;;;;;;;21.02;12.95;;;6.90;99.90;;;;;;5353735;26;19998;-78
2024/04/26 01:37:09;;;;;;;16.65;11.88;;;6.90;99.90;;;;;;5327857;26;20346;-77
2024/04/26 01:39:35;;;;;;;14.15;10.50;;;6.90;99.90;;;;;;5363381;26;19999;-77
2024/04/26 01:42:02;;;;;;;14.43;11.00;;;6.90;99.90;;;;;;5392747;26;20014;-76
2024/04/26 01:44:29;;;;;;;12.50;10.32;;;6.90;99.90;;;;;;5337132;26;20029;-75
2024/04/26 01:46:55;;;;;;;13.18;9.18;;;6.80;99.90;;;;;;5387794;26;20329;-77
2024/04/26 01:49:22;;;;;;;12.68;9.60;;;6.90;99.90;;;;;;5387430;26;20469;-77
2024/04/26 01:51:49;;;;;;;11.82;9.73;;;6.80;99.90;;;;;;5349089;26;20017;-76
2024/04/26 01:54:15;;;;;;;11.95;9.60;;;6.80;99.90;;;;;;5376495;26;20017;-76
2024/04/26 01:56:42;;;;;;;14.43;9.32;;;6.90;99.90;;;;;;5331017;26;20007;-77
2024/04/26 01:59:08;;;;;;;10.52;8.88;;;6.80;99.90;;;;;;5334591;26;20003;-75
2024/04/26 02:01:34;;;;;;;14.38;9.55;;;6.90;99.90;;;;;;5366509;26;20098;-76
2024/04/26 02:04:00;;;;;;;10.50;8.60;;;6.80;99.90;;;;;;5360751;26;20360;-75
2024/04/26 02:06:27;;;;;;;12.10;8.57;;;6.80;99.90;;;;;;5389534;26;20003;-75
2024/04/26 02:08:53;;;;;;;11.57;8.40;;;6.90;99.90;;;;;;5388117;26;20346;-74
2024/04/26 02:11:20;;;;;;;10.95;8.30;;;6.80;99.90;;;;;;5352012;26;20003;-77
2024/04/26 02:13:46;;;;;;;11.20;9.02;;;6.80;99.90;;;;;;5358084;26;20015;-74
2024/04/26 02:16:12;;;;;;;13.55;9.02;;;6.80;99.90;;;;;;5390643;26;20011;-75
2024/04/26 02:18:38;;;;;;;12.18;9.02;;;6.80;99.90;;;;;;5336941;26;20021;-75
2024/04/26 02:21:07;;;;;;;11.23;7.82;;;6.80;99.90;;;;;;5335493;26;20540;-76
2024/04/26 02:23:34;;;;;;;11.45;8.68;;;6.80;99.90;;;;;;5336394;26;20010;-77
2024/04/26 02:26:00;;;;;;;9.95;7.38;;;6.80;99.90;;;;;;5360582;26;20019;-76
2024/04/26 02:28:26;;;;;;;10.38;7.32;;;6.80;99.90;;;;;;5388445;26;20010;-74
2024/04/26 02:30:53;;;;;;;11.07;8.60;;;6.80;99.90;;;;;;5334262;26;19999;-75
2024/04/26 02:33:19;;;;;;;11.68;8.02;;;6.80;99.90;;;;;;5360641;26;20341;-74
2024/04/26 02:35:46;;;;;;;12.10;8.45;;;6.80;99.90;;;;;;5358271;26;20015;-74
2024/04/26 02:38:12;;;;;;;12.30;8.20;;;6.80;99.90;;;;;;5396069;26;20360;-74
2024/04/26 02:40:38;;;;;;;13.90;9.48;;;6.80;99.90;;;;;;5394978;26;20015;-74
2024/04/26 02:43:06;;;;;;;11.48;8.57;;;6.80;99.90;;;;;;5331710;26;20002;-74
2024/04/26 02:45:33;;;;;;;13.00;9.20;;;6.80;99.90;;;;;;5368059;26;20363;-75
2024/04/26 02:47:59;;;;;;;12.07;9.32;;;6.80;99.90;;;;;;5365905;26;20123;-74
2024/04/26 02:50:25;;;;;;;12.90;9.13;;;6.80;99.90;;;;;;5388395;26;20409;-74
2024/04/26 02:52:52;;;;;;;12.48;8.80;;;6.80;99.90;;;;;;5361198;26;20004;-75
2024/04/26 02:55:18;;;;;;;16.95;11.65;;;6.80;99.90;;;;;;5393834;26;20021;-75
2024/04/26 02:57:44;;;;;;;13.75;9.52;;;6.80;99.90;;;;;;5313718;26;20014;-76
2024/04/26 03:00:11;;;;;;;12.52;8.57;;;6.70;99.90;;;;;;5369197;26;20011;-73
2024/04/26 03:02:37;;;;;;;15.43;10.48;;;6.70;99.90;;;;;;5357912;26;20011;-73
2024/04/26 03:05:03;;;;;;;16.27;10.68;;;6.70;99.90;;;;;;5330139;26;20021;-74
2024/04/26 03:07:30;;;;;;;13.15;9.63;;;6.70;99.90;;;;;;5359211;26;20017;-75
2024/04/26 03:09:56;;;;;;;13.23;9.18;;;6.70;99.90;;;;;;5362139;26;20470;-74
2024/04/26 03:12:22;;;;;;;14.77;9.85;;;6.70;99.90;;;;;;5333787;26;20065;-74
2024/04/26 03:14:48;;;;;;;13.38;9.23;;;6.70;99.90;;;;;;5396398;26;20007;-75
2024/04/26 03:17:15;;;;;;;14.35;9.15;;;6.80;99.90;;;;;;5370176;26;20007;-74
2024/04/26 03:19:41;;;;;;;18.15;11.52;;;6.80;99.90;;;;;;5332311;26;20029;-73
2024/04/26 03:22:07;;;;;;;17.83;12.40;;;6.80;99.90;;;;;;5328988;26;20021;-73
2024/04/26 03:24:39;;;;;;;18.52;12.00;;;6.80;99.90;;;;;;5390232;26;20430;-76
2024/04/26 03:27:05;;;;;;;18.45;11.95;;;6.80;99.90;;;;;;5331164;26;20021;-73
2024/04/26 03:29:31;;;;;;;21.38;12.55;;;6.80;99.90;;;;;;5332087;26;20009;-74
2024/04/26 03:31:58;;;;;;;18.45;13.07;;;6.80;99.90;;;;;;5361182;26;20030;-76
2024/04/26 03:34:24;;;;;;;18.48;12.27;;;6.80;99.90;;;;;;5368722;26;20356;-74
2024/04/26 03:36:51;;;;;;;22.73;14.98;;;6.80;99.90;;;;;;5399723;26;20003;-74
2024/04/26 03:39:17;;;;;;;20.73;13.68;;;6.90;99.90;;;;;;5392521;26;20062;-74
2024/04/26 03:41:44;;;;;;;19.30;12.40;;;6.90;99.90;;;;;;5382128;26;20013;-73
2024/04/26 03:44:10;;;;;;;17.63;13.40;;;6.90;99.90;;;;;;5386464;26;20006;-73
2024/04/26 03:46:43;;;;;;;21.15;14.07;;;6.90;99.90;;;;;;5356259;26;20497;-75
2024/04/26 03:49:10;;;;;;;18.58;13.20;;;6.90;99.90;;;;;;5359060;26;20011;-73
2024/04/26 03:51:36;;;;;;;20.63;13.57;;;6.90;99.90;;;;;;5388222;26;20021;-73
2024/04/26 03:54:03;;;;;;;18.00;13.35;;;6.90;99.90;;;;;;5367732;26;20007;-75
2024/04/26 03:56:29;;;;;;;17.88;11.88;;;6.90;99.90;;;;;;5318331;26;20497;-75
2024/04/26 03:58:55;;;;;;;19.27;12.63;;;6.90;99.90;;;;;;5387045;26;20378;-73
2024/04/26 04:01:22;;;;;;;20.10;14.00;;;6.90;99.90;;;;;;5326902;26;20014;-73
2024/04/26 04:03:48;;;;;;;23.98;14.43;;;6.90;99.90;;;;;;5358685;26;20003;-73
2024/04/26 04:06:15;;;;;;;21.23;13.93;;;6.90;99.90;;;;;;5359773;26;19999;-73
2024/04/26 04:08:42;;;;;;;19.42;13.07;;;6.90;99.90;;;;;;5389926;26;20013;-75
2024/04/26 04:11:09;;;;;;;21.17;13.25;;;6.90;99.90;;;;;;5389138;26;20018;-75
2024/04/26 04:13:35;;;;;;;21.00;14.15;;;6.90;99.90;;;;;;5360753;26;20007;-74
2024/04/26 04:16:01;;;;;;;21.52;14.52;;;6.90;99.90;;;;;;5360235;26;20015;-75
2024/04/26 04:18:28;;;;;;;21.15;13.50;;;7.00;99.90;;;;;;5360753;26;20446;-76
2024/04/26 04:20:54;;;;;;;22.58;15.18;;;7.00;99.90;;;;;;5359663;26;20355;-73
2024/04/26 04:23:20;;;;;;;23.60;15.50;;;7.00;99.90;;;;;;5387704;26;21221;-74
2024/04/26 04:25:47;;;;;;;20.77;14.38;;;7.00;99.90;;;;;;5361614;26;20457;-74
2024/04/26 04:28:14;;;;;;;19.13;12.82;;;7.00;99.90;;;;;;5359984;26;19999;-73
2024/04/26 04:30:40;;;;;;;20.85;14.05;;;7.00;99.90;;;;;;5330410;26;19999;-73
2024/04/26 04:33:06;;;;;;;22.17;14.25;;;7.00;99.90;;;;;;5365397;26;20010;-73
2024/04/26 04:35:33;;;;;;;26.38;17.10;;;7.00;99.90;;;;;;5359653;26;20447;-74
2024/04/26 04:38:02;;;;;;;26.15;17.25;;;7.00;99.90;;;;;;5333654;26;20455;-74
2024/04/26 04:40:29;;;;;;;25.33;15.65;;;7.00;99.90;;;;;;5326314;26;20017;-75
2024/04/26 04:42:55;;;;;;;23.83;15.85;;;7.00;99.90;;;;;;5360689;26;19998;-76
2024/04/26 04:45:22;;;;;;;24.50;15.93;;;7.00;99.90;;;;;;5354192;26;20021;-74
2024/04/26 04:47:48;;;;;;;21.80;14.68;;;7.00;99.90;;;;;;5328366;26;20024;-75
2024/04/26 04:50:15;;;;;;;26.25;15.57;;;7.00;99.90;;;;;;5397069;26;20011;-74
2024/04/26 04:52:41;;;;;;;25.67;16.23;;;7.00;99.90;;;;;;5341364;26;20012;-74
2024/04/26 04:55:07;;;;;;;25.27;15.80;;;7.00;99.90;;;;;;5394911;26;20506;-74
2024/04/26 04:57:34;;;;;;;25.42;16.08;;;7.00;99.90;;;;;;5332746;26;19999;-74
2024/04/26 05:00:03;;;;;;;26.20;16.08;;;7.10;99.90;;;;;;5330534;26;20006;-75
2024/04/26 05:02:29;;;;;;;27.70;16.75;;;7.10;99.90;;;;;;5357315;26;20011;-76
2024/04/26 05:04:56;;;;;;;27.35;16.75;;;7.10;99.90;;;;;;5389615;26;20011;-75
2024/04/26 05:07:22;;;;;;;25.35;16.45;;;7.10;99.90;;;;;;5363573;26;21258;-74
2024/04/26 05:09:48;;;;;;;25.23;16.08;;;7.10;99.90;;;;;;5374574;26;20015;-74
2024/04/26 05:12:15;;;;;;;25.15;15.82;;;7.10;99.90;;;;;;5361458;26;20396;-73
2024/04/26 05:14:42;;;;;;;26.17;17.65;;;7.10;99.90;;;;;;5390111;26;20003;-75
2024/04/26 05:17:08;;;;;;;27.17;16.98;;;7.10;99.90;;;;;;5370253;26;20029;-73
2024/04/26 05:19:35;;;;;;;27.38;17.33;;;7.10;99.90;;;;;;5389101;26;20449;-74
2024/04/26 05:22:01;;;;;;;27.58;16.88;;;7.10;99.90;;;;;;5387245;26;20442;-75
2024/04/26 05:24:28;;;;;;;25.20;15.38;;;7.10;99.90;;;;;;5363831;26;19995;-74
2024/04/26 05:26:55;;;;;;;25.88;16.30;;;7.10;99.90;;;;;;5396097;26;20000;-76
2024/04/26 05:29:23;;;;;;;27.67;17.42;;;7.10;99.90;;;;;;5368129;26;20021;-74
2024/04/26 05:31:49;;;;;;;28.02;17.38;;;7.10;99.90;;;;;;5326943;26;20024;-74
2024/04/26 05:34:16;;;;;;;26.83;16.27;;;7.10;99.90;;;;;;5369333;26;20011;-74
2024/04/26 05:36:42;;;;;;;26.35;15.95;;;7.10;99.90;;;;;;5359246;26;20017;-74
2024/04/26 05:39:08;;;;;;;29.30;18.15;;;7.10;99.90;;;;;;5361877;26;20013;-74
2024/04/26 05:41:35;;;;;;;28.23;15.82;;;7.20;99.90;;;;;;5345646;26;21199;-74
2024/04/26 05:44:01;;;;;;;26.25;16.55;;;7.20;99.90;;;;;;5370207;26;19999;-74
2024/04/26 05:46:27;;;;;;;27.52;17.80;;;7.20;99.90;;;;;;5335565;26;20017;-75
2024/04/26 05:48:54;;;;;;;27.70;16.17;;;7.20;99.90;;;;;;5389461;26;20048;-75
2024/04/26 05:51:20;;;;;;;27.17;16.17;;;7.20;99.90;;;;;;5361848;26;20002;-74
2024/04/26 05:53:46;;;;;;;26.20;16.63;;;7.20;99.90;;;;;;5361216;26;21782;-73
2024/04/26 05:56:13;;;;;;;27.30;16.60;;;7.20;99.90;;;;;;5386358;26;20007;-74
2024/04/26 05:58:39;;;;;;;27.05;17.00;;;7.20;99.90;;;;;;5386426;26;20025;-74
2024/04/26 06:01:07;;;;;;;26.27;15.50;;;7.20;99.90;;;;;;5338654;26;20007;-73
2024/04/26 06:03:34;;;;;;;25.65;15.50;;;7.30;99.90;;;;;;5369025;26;20003;-74
2024/04/26 06:06:01;;;;;;;25.23;15.65;;;7.30;99.90;;;;;;5364714;26;20009;-75
2024/04/26 06:08:30;;;;;;;25.38;15.32;;;7.40;99.90;;;;;;5355243;26;20007;-75
2024/04/26 06:10:57;;;;;;;25.33;13.77;;;7.40;99.90;;;;;;5361110;26;20015;-74
2024/04/26 06:13:23;;;;;;;23.85;14.35;;;7.40;99.90;;;;;;5387422;26;20003;-74
2024/04/26 06:15:50;;;;;;;23.75;14.60;;;7.40;99.90;;;;;;5356695;26;20021;-73
2024/04/26 06:18:16;;;;;;;28.35;17.58;;;7.50;99.90;;;;;;5389480;26;20014;-73
2024/04/26 06:20:42;;;;;;;29.17;17.52;;;7.50;99.90;;;;;;5395832;26;20356;-74
2024/04/26 06:23:08;;;;;;;28.83;17.33;;;7.50;99.90;;;;;;5400356;26;20017;-73
2024/04/26 06:25:35;;;;;;;31.25;19.08;;;7.50;99.90;;;;;;5338083;26;20972;-73
2024/04/26 06:28:01;;;;;;;32.17;19.48;;;7.50;99.90;;;;;;5336513;26;20015;-74
2024/04/26 06:30:27;;;;;;;27.55;16.75;;;7.50;99.90;;;;;;5388654;26;20009;-74
2024/04/26 06:32:54;;;;;;;30.58;18.00;;;7.60;99.90;;;;;;5361611;26;22575;-75
2024/04/26 06:35:20;;;;;;;28.20;16.88;;;7.70;99.90;;;;;;5389161;26;20591;-73
2024/04/26 06:37:47;;;;;;;29.20;17.08;;;7.70;99.90;;;;;;5334792;26;20523;-74
2024/04/26 06:40:13;;;;;;;28.67;16.10;;;7.80;99.90;;;;;;5369342;26;20010;-74
2024/04/26 06:42:40;;;;;;;30.27;17.42;;;7.90;99.90;;;;;;5339329;26;20798;-74
2024/04/26 06:45:06;;;;;;;28.63;18.42;;;7.90;99.90;;;;;;5394090;26;20003;-75
2024/04/26 06:47:32;;;;;;;27.73;16.85;;;8.00;99.90;;;;;;5365719;26;20450;-74
2024/04/26 06:49:58;;;;;;;26.23;16.23;;;8.00;99.90;;;;;;5329973;26;20013;-74
2024/04/26 06:52:25;;;;;;;28.17;16.67;;;8.10;99.90;;;;;;5391588;26;20026;-75
2024/04/26 06:54:51;;;;;;;32.60;19.52;;;8.20;99.90;;;;;;5357339;26;20441;-75
2024/04/26 06:57:18;;;;;;;30.48;18.50;;;8.30;99.90;;;;;;5338208;26;20003;-74
2024/04/26 06:59:45;;;;;;;28.23;16.55;;;8.40;99.90;;;;;;5372391;26;20469;-74
2024/04/26 07:02:11;;;;;;;28.33;16.42;;;8.50;99.90;;;;;;5367231;26;20006;-74
2024/04/26 07:04:37;;;;;;;28.50;18.65;;;8.70;99.90;;;;;;5367121;26;20457;-75
2024/04/26 07:07:04;;;;;;;27.27;16.90;;;8.80;99.90;;;;;;5387997;26;20018;-76
2024/04/26 07:09:30;;;;;;;27.45;17.73;;;8.90;99.90;;;;;;5332235;26;20021;-73
2024/04/26 07:11:56;;;;;;;22.77;15.50;;;8.90;99.90;;;;;;5359424;26;20017;-74
2024/04/26 07:14:22;;;;;;;20.65;13.55;;;8.90;99.90;;;;;;5387404;26;20039;-74
2024/04/26 07:16:49;;;;;;;22.88;14.20;;;8.90;99.90;;;;;;5365159;26;20017;-74
2024/04/26 07:19:16;;;;;;;20.30;13.80;;;9.00;99.90;;;;;;5367124;26;20003;-74
2024/04/26 07:21:43;;;;;;;23.30;15.13;;;9.00;99.90;;;;;;5396124;26;19998;-74
2024/04/26 07:24:10;;;;;;;20.92;13.75;;;9.10;99.90;;;;;;5363514;26;20371;-76
2024/04/26 07:26:36;;;;;;;20.10;13.55;;;9.20;99.90;;;;;;5335109;26;20348;-74
2024/04/26 07:29:03;;;;;;;22.02;14.02;;;9.30;99.90;;;;;;5390832;26;20003;-74
2024/04/26 07:31:30;;;;;;;22.40;14.50;;;9.30;99.90;;;;;;5386410;26;20003;-74
2024/04/26 07:33:56;;;;;;;19.38;13.32;;;9.30;99.90;;;;;;5326632;26;20021;-74
2024/04/26 07:36:22;;;;;;;18.90;13.90;;;9.30;99.90;;;;;;5359066;26;20414;-74
2024/04/26 07:38:49;;;;;;;17.35;12.38;;;9.30;99.90;;;;;;5340548;26;20025;-73
2024/04/26 07:41:15;;;;;;;14.82;11.52;;;9.20;99.90;;;;;;5372488;26;20014;-73
2024/04/26 07:43:44;;;;;;;16.77;12.73;;;9.20;99.90;;;;;;5385357;26;20454;-73
2024/04/26 07:46:10;;;;;;;16.95;11.90;;;9.30;99.90;;;;;;5312894;26;19999;-73
2024/04/26 07:48:37;;;;;;;17.35;13.43;;;9.50;99.90;;;;;;5331830;26;20013;-72
2024/04/26 07:51:03;;;;;;;14.77;11.80;;;9.60;99.90;;;;;;5325197;26;20007;-73
2024/04/26 07:53:30;;;;;;;14.50;10.45;;;9.60;99.90;;;;;;5385320;26;20021;-73
2024/04/26 07:55:56;;;;;;;18.90;12.27;;;9.70;99.90;;;;;;5384481;26;21138;-74
2024/04/26 07:58:22;;;;;;;14.73;11.73;;;9.90;99.90;;;;;;5398154;26;20022;-74
2024/04/26 08:00:48;;;;;;;16.73;12.05;;;10.20;99.90;;;;;;5365680;26;20003;-73
2024/04/26 08:03:15;;;;;;;13.57;10.68;;;10.40;99.90;;;;;;5385724;26;20017;-73
2024/04/26 08:05:42;;;;;;;13.25;10.90;;;10.50;99.90;;;;;;5358414;26;20020;-73
2024/04/26 08:08:08;;;;;;;13.13;10.45;;;10.80;99.90;;;;;;5353332;26;20014;-73
2024/04/26 08:10:34;;;;;;;14.18;8.65;;;11.00;99.90;;;;;;5356350;26;19999;-73
2024/04/26 08:13:01;;;;;;;10.68;7.95;;;11.10;99.90;;;;;;5326589;26;20003;-74
2024/04/26 08:15:27;;;;;;;8.50;7.22;;;11.00;99.90;;;;;;5360208;26;20011;-74
2024/04/26 08:17:53;;;;;;;9.07;7.57;;;10.90;99.90;;;;;;5367042;26;20031;-72
2024/04/26 08:20:19;;;;;;;8.82;7.15;;;10.90;99.90;;;;;;5342839;26;21483;-72
2024/04/26 08:22:46;;;;;;;8.38;7.28;;;11.10;99.90;;;;;;5368334;26;20064;-72
2024/04/26 08:25:12;;;;;;;10.35;7.55;;;11.20;99.90;;;;;;5362127;26;19999;-72
2024/04/26 08:27:39;;;;;;;9.85;6.70;;;11.40;99.90;;;;;;5369167;26;20008;-73
2024/04/26 08:30:05;;;;;;;10.40;6.70;;;11.50;99.90;;;;;;5388304;26;20007;-73
2024/04/26 08:32:32;;;;;;;9.23;5.90;;;11.50;99.90;;;;;;5331023;26;20011;-72
2024/04/26 08:34:58;;;;;;;8.98;6.70;;;11.40;99.90;;;;;;5367062;26;20008;-73
2024/04/26 08:37:24;;;;;;;7.10;5.43;;;11.30;99.90;;;;;;5346245;26;20461;-73
2024/04/26 08:39:50;;;;;;;6.20;5.38;;;11.20;99.90;;;;;;5366332;26;20009;-73
2024/04/26 08:42:22;;;;;;;7.50;5.00;;;11.10;99.90;;;;;;5358753;26;20003;-72
2024/04/26 08:44:48;;;;;;;6.75;4.03;;;11.00;99.90;;;;;;5356429;26;20003;-74
2024/04/26 08:47:15;;;;;;;6.10;4.50;;;10.70;99.90;;;;;;5356443;26;20473;-73
2024/04/26 08:49:46;;;;;;;5.80;3.85;;;10.50;99.90;;;;;;5352404;26;19999;-72
2024/04/26 08:52:16;;;;;;;4.43;3.35;;;10.40;99.90;;;;;;5326642;26;20021;-74
2024/04/26 08:54:43;;;;;;;5.70;2.97;;;10.60;99.90;;;;;;5369576;26;20015;-72
2024/04/26 08:57:09;;;;;;;4.10;2.88;;;10.70;99.90;;;;;;5397726;26;20007;-73
2024/04/26 08:59:43;;;;;;;5.35;2.58;;;10.90;99.90;;;;;;5361277;26;20007;-74
2024/04/26 09:02:10;;;;;;;3.67;1.80;;;11.00;99.90;;;;;;5357737;26;20003;-73
2024/04/26 09:04:37;;;;;;;3.38;2.33;;;11.00;99.90;;;;;;5332647;26;20006;-74
2024/04/26 09:07:03;;;;;;;3.17;1.95;;;11.20;99.90;;;;;;5387118;26;20003;-72
2024/04/26 09:09:30;;;;;;;4.07;2.60;;;11.50;99.90;;;;;;5337222;26;19998;-72
2024/04/26 09:12:01;;;;;;;3.80;1.80;;;11.80;99.90;;;;;;5357130;26;22196;-74
2024/04/26 09:14:30;;;;;;;2.45;1.65;;;11.90;99.90;;;;;;5398606;26;20003;-74
2024/04/26 09:16:56;;;;;;;4.32;2.00;;;11.80;99.90;;;;;;5368362;26;20003;-74
2024/04/26 09:19:22;;;;;;;2.50;1.27;;;11.50;99.90;;;;;;5363519;26;20332;-73
2024/04/26 09:21:49;;;;;;;3.53;1.52;;;11.40;99.90;;;;;;5359703;26;20454;-73
2024/04/26 09:24:15;;;;;;;2.30;1.70;;;11.30;99.90;;;;;;5389208;26;20007;-73
2024/04/26 09:26:41;;;;;;;7.05;1.67;;;11.30;99.90;;;;;;5335976;26;20012;-74
2024/04/26 09:29:08;;;;;;;2.13;1.10;;;11.60;99.90;;;;;;5392303;26;20482;-73
2024/04/26 09:31:34;;;;;;;3.65;0.90;;;11.70;99.90;;;;;;5362140;26;19998;-73
2024/04/26 09:34:05;;;;;;;2.20;1.02;;;11.90;99.90;;;;;;5373747;26;22177;-75
2024/04/26 09:36:36;;;;;;;2.10;0.85;;;12.10;99.90;;;;;;5393005;26;20000;-74
2024/04/26 09:39:04;;;;;;;2.03;0.95;;;12.30;99.90;;;;;;5390781;26;20017;-74
2024/04/26 09:41:33;;;;;;;4.05;1.15;;;12.40;99.90;;;;;;5381457;26;20011;-76
2024/04/26 09:44:01;;;;;;;4.07;1.02;;;12.70;99.90;;;;;;5332531;26;20468;-75
2024/04/26 09:46:30;;;;;;;3.17;0.80;;;12.80;99.90;;;;;;5359249;26;20014;-76
2024/04/26 09:48:57;;;;;;;2.85;0.70;;;13.00;99.90;;;;;;5357431;26;20652;-76
2024/04/26 09:51:26;;;;;;;2.95;0.77;;;13.20;99.90;;;;;;5365412;26;20007;-76
2024/04/26 09:53:55;;;;;;;2.08;0.80;;;13.40;99.90;;;;;;5334657;26;20010;-77
2024/04/26 09:56:21;;;;;;;2.33;0.95;;;13.60;99.90;;;;;;5366679;26;20013;-76
2024/04/26 09:58:47;;;;;;;3.72;0.70;;;13.80;99.90;;;;;;5365307;26;20003;-75
2024/04/26 10:01:16;;;;;;;1.90;0.50;;;13.70;99.90;;;;;;5359555;26;20649;-75
2024/04/26 10:03:43;;;;;;;1.85;0.40;;;13.80;99.90;;;;;;5358353;26;20461;-74
2024/04/26 10:06:13;;;;;;;2.42;0.60;;;13.80;99.90;;;;;;5359744;26;20575;-76
2024/04/26 10:08:40;;;;;;;1.95;0.40;;;14.00;99.90;;;;;;5367030;26;20025;-76
2024/04/26 10:11:12;;;;;;;2.17;0.50;;;14.10;99.90;;;;;;5369614;26;20011;-77
2024/04/26 10:13:46;;;;;;;1.67;0.70;;;14.40;99.90;;;;;;5378431;26;20331;-74
2024/04/26 10:16:28;;;;;;;2.05;0.50;;;14.60;99.90;;;;;;5380689;26;20007;-75
2024/04/26 10:18:55;;;;;;;1.60;0.50;;;14.90;99.90;;;;;;5356240;26;20011;-74
2024/04/26 10:21:25;;;;;;;2.20;0.50;;;15.10;99.90;;;;;;5386162;26;20004;-73
2024/04/26 10:23:57;;;;;;;2.13;0.60;;;15.10;99.90;;;;;;5357784;26;20003;-73
2024/04/26 10:26:24;;;;;;;1.92;0.50;;;15.00;99.90;;;;;;5332164;26;20572;-75
2024/04/26 10:28:50;;;;;;;2.85;0.50;;;15.00;99.90;;;;;;5366829;26;19998;-75
2024/04/26 10:31:28;;;;;;;1.30;0.30;;;15.20;99.90;;;;;;5367935;26;20004;-73
2024/04/26 10:33:58;;;;;;;4.03;0.40;;;15.40;99.90;;;;;;5390729;26;20010;-74
2024/04/26 10:36:24;;;;;;;2.35;0.43;;;15.70;99.90;;;;;;5355577;26;20455;-76
2024/04/26 10:38:50;;;;;;;2.47;0.30;;;16.00;99.90;;;;;;5357735;26;20003;-74
2024/04/26 10:41:18;;;;;;;1.00;0.38;;;16.30;99.90;;;;;;5332947;26;20010;-74
2024/04/26 10:43:52;;;;;;;0.95;0.20;;;16.70;99.90;;;;;;5351098;26;20011;-74
2024/04/26 10:46:19;;;;;;;0.73;0.20;;;17.10;99.90;;;;;;5381084;26;20583;-75
2024/04/26 10:48:45;;;;;;;2.00;0.55;;;17.40;99.90;;;;;;5341573;26;19995;-75
2024/04/26 10:51:12;;;;;;;1.75;0.20;;;17.70;99.90;;;;;;5393894;26;20020;-73
2024/04/26 10:53:41;;;;;;;2.42;0.30;;;18.00;99.90;;;;;;5387284;26;20455;-75
2024/04/26 10:56:15;;;;;;;2.03;0.30;;;18.30;99.90;;;;;;5388134;26;20366;-73
2024/04/26 10:58:42;;;;;;;1.75;0.40;;;18.60;99.90;;;;;;5359416;26;20021;-73
2024/04/26 11:01:20;;;;;;;2.55;0.30;;;18.80;99.90;;;;;;5389142;26;20003;-74
2024/04/26 11:04:00;;;;;;;1.38;0.28;;;19.20;99.90;;;;;;5328940;26;19999;-74
2024/04/26 11:06:34;;;;;;;1.80;0.30;;;19.50;99.90;;;;;;5358768;26;20010;-74
2024/04/26 11:09:19;;;;;;;0.63;0.20;;;19.70;99.90;;;;;;5394387;26;20007;-74
2024/04/26 11:11:52;;;;;;;1.90;0.60;;;19.80;99.90;;;;;;5365425;26;20015;-74
2024/04/26 11:14:20;;;;;;;2.08;0.30;;;20.10;99.90;;;;;;5357762;26;19999;-74
2024/04/26 11:16:47;;;;;;;2.10;0.40;;;20.50;99.90;;;;;;5388903;26;20051;-75
2024/04/26 11:19:13;;;;;;;2.65;0.43;;;20.70;99.90;;;;;;5331888;26;20007;-74
2024/04/26 11:21:40;;;;;;;1.85;0.40;;;21.00;99.90;;;;;;5330267;26;20011;-76
2024/04/26 11:24:06;;;;;;;1.63;0.20;;;21.30;98.10;;;;;;5390517;26;20011;-74
2024/04/26 11:26:35;;;;;;;1.33;0.30;;;21.50;96.60;;;;;;5390345;26;20011;-76
2024/04/26 11:29:02;;;;;;;2.60;0.45;;;21.70;96.10;;;;;;5339213;26;20029;-76
2024/04/26 11:31:28;;;;;;;1.02;0.30;;;21.90;94.70;;;;;;5379492;26;20005;-75
2024/04/26 11:33:54;;;;;;;2.15;0.60;;;22.20;94.40;;;;;;5350214;26;20010;-74
2024/04/26 11:36:21;;;;;;;1.35;0.30;;;22.60;93.50;;;;;;5352259;26;20006;-75
2024/04/26 11:38:48;;;;;;;1.27;0.30;;;22.90;92.40;;;;;;5352269;26;22527;-75
2024/04/26 11:41:14;;;;;;;2.22;0.40;;;23.10;91.70;;;;;;5352230;26;20021;-75
2024/04/26 11:43:41;;;;;;;1.08;0.30;;;23.40;91.00;;;;;;5345588;26;21210;-75
2024/04/26 11:46:07;;;;;;;2.05;0.30;;;23.70;90.50;;;;;;5360462;26;21216;-75
2024/04/26 11:48:34;;;;;;;0.98;0.20;;;23.90;88.90;;;;;;5367773;26;20015;-74
2024/04/26 11:51:00;;;;;;;1.05;0.30;;;24.20;87.80;;;;;;5394443;26;20018;-75
2024/04/26 11:53:26;;;;;;;1.00;0.20;;;24.20;84.90;;;;;;5386528;26;20418;-75
2024/04/26 11:55:53;;;;;;;0.93;0.30;;;23.60;83.10;;;;;;5336134;26;20010;-74
2024/04/26 11:58:19;;;;;;;0.98;0.30;;;22.70;82.50;;;;;;5333771;26;20471;-75
2024/04/26 12:00:45;;;;;;;2.13;0.30;;;21.80;82.20;;;;;;5387791;26;20010;-75
2024/04/26 12:03:12;;;;;;;1.05;0.30;;;21.20;82.60;;;;;;5351583;26;19998;-74
2024/04/26 12:05:41;;;;;;;1.98;0.30;;;21.20;84.20;;;;;;5337486;26;20426;-74
2024/04/26 12:08:07;;;;;;;2.13;0.20;;;21.50;83.10;;;;;;5400826;26;20017;-76
2024/04/26 12:10:33;;;;;;;1.98;0.32;;;21.40;82.70;;;;;;5339140;26;20078;-75
2024/04/26 12:13:00;;;;;;;1.02;0.38;;;20.80;82.40;;;;;;5324865;26;20009;-76
2024/04/26 12:15:27;;;;;;;0.57;0.20;;;20.40;83.70;;;;;;5355238;26;20010;-76
2024/04/26 12:17:53;;;;;;;3.15;0.40;;;19.90;84.20;;;;;;5358983;26;20034;-75
2024/04/26 12:20:19;;;;;;;0.90;0.30;;;19.40;84.60;;;;;;5356793;26;20130;-75
2024/04/26 12:22:46;;;;;;;1.02;0.20;;;18.90;85.30;;;;;;5331236;26;20003;-75
2024/04/26 12:25:15;;;;;;;1.63;0.38;;;18.60;86.10;;;;;;5364379;26;20363;-75
2024/04/26 12:27:42;;;;;;;1.20;0.30;;;19.20;87.00;;;;;;5369343;26;20003;-74
2024/04/26 12:30:08;;;;;;;1.35;0.22;;;20.00;85.70;;;;;;5363132;26;20457;-74
2024/04/26 12:32:35;;;;;;;3.25;0.40;;;20.30;86.10;;;;;;5322849;26;20026;-75
2024/04/26 12:35:05;;;;;;;1.13;0.20;;;21.30;84.90;;;;;;5387424;26;20358;-76
2024/04/26 12:37:31;;;;;;;0.88;0.20;;;22.20;82.50;;;;;;5386377;26;20003;-76
2024/04/26 12:39:57;;;;;;;1.92;0.40;;;23.10;81.50;;;;;;5360395;26;20041;-76